sensor_id;sensor_type;location;lat;lon;timestamp;P1;durP1;ratioP1;P2;durP2;ratioP2
19149;SDS011;9707;49.158;8.632;2022-10-31T00:00:56;4.88;;;4.20;;
19149;SDS011;9707;49.158;8.632;2022-10-31T00:03:21;5.70;;;4.35;;
19149;SDS011;9707;49.158;8.632;2022-10-31T00:05:47;6.18;;;3.85;;
19149;SDS011;9707;49.158;8.632;2022-10-31T00:08:14;7.07;;;4.50;;
19149;SDS011;9707;49.158;8.632;2022-10-31T00:10:40;9.98;;;4.50;;
19149;SDS011;9707;49.158;8.632;2022-10-31T00:13:07;5.75;;;3.97;;
19149;SDS011;9707;49.158;8.632;2022-10-31T00:15:34;6.05;;;4.60;;
19149;SDS011;9707;49.158;8.632;2022-10-31T00:18:00;6.65;;;4.32;;
19149;SDS011;9707;49.158;8.632;2022-10-31T00:20:26;6.47;;;4.32;;
19149;SDS011;9707;49.158;8.632;2022-10-31T00:22:52;4.30;;;3.83;;
19149;SDS011;9707;49.158;8.632;2022-10-31T00:25:17;6.63;;;3.78;;
19149;SDS011;9707;49.158;8.632;2022-10-31T00:27:42;7.35;;;4.22;;
19149;SDS011;9707;49.158;8.632;2022-10-31T00:30:07;8.60;;;4.63;;
19149;SDS011;9707;49.158;8.632;2022-10-31T00:32:33;8.52;;;4.40;;
19149;SDS011;9707;49.158;8.632;2022-10-31T00:34:58;6.10;;;4.55;;
19149;SDS011;9707;49.158;8.632;2022-10-31T00:37:24;5.55;;;3.85;;
19149;SDS011;9707;49.158;8.632;2022-10-31T00:39:49;7.47;;;4.55;;
19149;SDS011;9707;49.158;8.632;2022-10-31T00:42:14;12.15;;;4.43;;
19149;SDS011;9707;49.158;8.632;2022-10-31T00:44:40;7.32;;;4.00;;
19149;SDS011;9707;49.158;8.632;2022-10-31T00:47:05;5.53;;;4.63;;
19149;SDS011;9707;49.158;8.632;2022-10-31T00:49:31;6.25;;;3.95;;
19149;SDS011;9707;49.158;8.632;2022-10-31T00:51:56;4.90;;;3.67;;
19149;SDS011;9707;49.158;8.632;2022-10-31T00:54:21;6.88;;;4.03;;
19149;SDS011;9707;49.158;8.632;2022-10-31T00:56:46;6.40;;;4.18;;
19149;SDS011;9707;49.158;8.632;2022-10-31T00:59:12;7.15;;;4.18;;
19149;SDS011;9707;49.158;8.632;2022-10-31T01:01:37;8.50;;;4.07;;
19149;SDS011;9707;49.158;8.632;2022-10-31T01:04:02;7.35;;;4.70;;
19149;SDS011;9707;49.158;8.632;2022-10-31T01:06:28;5.20;;;3.92;;
19149;SDS011;9707;49.158;8.632;2022-10-31T01:08:53;6.57;;;3.85;;
19149;SDS011;9707;49.158;8.632;2022-10-31T01:11:19;6.95;;;4.13;;
19149;SDS011;9707;49.158;8.632;2022-10-31T01:13:46;3.83;;;3.45;;
19149;SDS011;9707;49.158;8.632;2022-10-31T01:16:15;7.18;;;3.60;;
19149;SDS011;9707;49.158;8.632;2022-10-31T01:18:42;5.75;;;4.10;;
19149;SDS011;9707;49.158;8.632;2022-10-31T01:21:15;6.07;;;3.95;;
19149;SDS011;9707;49.158;8.632;2022-10-31T01:23:45;6.13;;;3.70;;
19149;SDS011;9707;49.158;8.632;2022-10-31T01:26:12;7.03;;;3.97;;
19149;SDS011;9707;49.158;8.632;2022-10-31T01:28:46;8.88;;;3.85;;
19149;SDS011;9707;49.158;8.632;2022-10-31T01:31:16;7.15;;;3.20;;
19149;SDS011;9707;49.158;8.632;2022-10-31T01:33:44;6.65;;;3.67;;
19149;SDS011;9707;49.158;8.632;2022-10-31T01:38:42;4.35;;;3.40;;
19149;SDS011;9707;49.158;8.632;2022-10-31T01:41:08;4.32;;;3.92;;
19149;SDS011;9707;49.158;8.632;2022-10-31T01:43:49;5.95;;;3.38;;
19149;SDS011;9707;49.158;8.632;2022-10-31T01:46:19;6.07;;;3.70;;
19149;SDS011;9707;49.158;8.632;2022-10-31T01:48:49;6.50;;;3.67;;
19149;SDS011;9707;49.158;8.632;2022-10-31T01:51:16;7.10;;;3.40;;
19149;SDS011;9707;49.158;8.632;2022-10-31T01:53:44;5.15;;;3.33;;
19149;SDS011;9707;49.158;8.632;2022-10-31T01:56:11;8.48;;;3.58;;
19149;SDS011;9707;49.158;8.632;2022-10-31T01:58:38;5.20;;;3.78;;
19149;SDS011;9707;49.158;8.632;2022-10-31T02:01:04;6.03;;;3.83;;
19149;SDS011;9707;49.158;8.632;2022-10-31T02:03:30;4.85;;;3.53;;
19149;SDS011;9707;49.158;8.632;2022-10-31T02:05:56;6.53;;;3.78;;
19149;SDS011;9707;49.158;8.632;2022-10-31T02:10:59;5.55;;;4.00;;
19149;SDS011;9707;49.158;8.632;2022-10-31T02:13:26;5.07;;;3.08;;
19149;SDS011;9707;49.158;8.632;2022-10-31T02:15:54;7.15;;;3.40;;
19149;SDS011;9707;49.158;8.632;2022-10-31T02:18:21;7.55;;;3.53;;
19149;SDS011;9707;49.158;8.632;2022-10-31T02:23:31;5.13;;;3.22;;
19149;SDS011;9707;49.158;8.632;2022-10-31T02:44:57;6.05;;;3.28;;
19149;SDS011;9707;49.158;8.632;2022-10-31T02:47:32;4.72;;;3.15;;
19149;SDS011;9707;49.158;8.632;2022-10-31T02:50:06;6.68;;;3.67;;
19149;SDS011;9707;49.158;8.632;2022-10-31T02:52:35;3.78;;;2.85;;
19149;SDS011;9707;49.158;8.632;2022-10-31T02:57:37;9.00;;;3.45;;
19149;SDS011;9707;49.158;8.632;2022-10-31T03:00:05;4.70;;;3.55;;
19149;SDS011;9707;49.158;8.632;2022-10-31T03:08:38;5.57;;;3.40;;
19149;SDS011;9707;49.158;8.632;2022-10-31T03:11:13;4.68;;;2.72;;
19149;SDS011;9707;49.158;8.632;2022-10-31T03:24:44;6.07;;;3.13;;
19149;SDS011;9707;49.158;8.632;2022-10-31T03:27:13;5.82;;;3.25;;
19149;SDS011;9707;49.158;8.632;2022-10-31T03:29:43;3.47;;;3.17;;
19149;SDS011;9707;49.158;8.632;2022-10-31T03:32:12;6.00;;;3.10;;
19149;SDS011;9707;49.158;8.632;2022-10-31T03:34:41;4.82;;;3.00;;
19149;SDS011;9707;49.158;8.632;2022-10-31T03:37:10;5.13;;;3.00;;
19149;SDS011;9707;49.158;8.632;2022-10-31T03:39:39;4.40;;;3.20;;
19149;SDS011;9707;49.158;8.632;2022-10-31T03:42:09;8.15;;;3.33;;
19149;SDS011;9707;49.158;8.632;2022-10-31T03:44:37;4.35;;;2.88;;
19149;SDS011;9707;49.158;8.632;2022-10-31T03:47:06;6.63;;;3.50;;
19149;SDS011;9707;49.158;8.632;2022-10-31T03:49:31;3.33;;;2.85;;
19149;SDS011;9707;49.158;8.632;2022-10-31T03:51:59;6.78;;;2.85;;
19149;SDS011;9707;49.158;8.632;2022-10-31T03:54:43;8.48;;;3.13;;
19149;SDS011;9707;49.158;8.632;2022-10-31T04:00:00;5.95;;;2.63;;
19149;SDS011;9707;49.158;8.632;2022-10-31T04:02:33;3.95;;;2.53;;
19149;SDS011;9707;49.158;8.632;2022-10-31T04:05:03;3.88;;;2.92;;
19149;SDS011;9707;49.158;8.632;2022-10-31T04:07:30;4.00;;;2.65;;
19149;SDS011;9707;49.158;8.632;2022-10-31T04:10:02;4.38;;;2.75;;
19149;SDS011;9707;49.158;8.632;2022-10-31T04:12:31;4.28;;;2.88;;
19149;SDS011;9707;49.158;8.632;2022-10-31T04:14:59;3.17;;;2.38;;
19149;SDS011;9707;49.158;8.632;2022-10-31T04:17:27;2.92;;;2.63;;
19149;SDS011;9707;49.158;8.632;2022-10-31T04:19:58;3.20;;;2.45;;
19149;SDS011;9707;49.158;8.632;2022-10-31T04:22:25;3.60;;;2.55;;
19149;SDS011;9707;49.158;8.632;2022-10-31T04:24:50;4.45;;;2.67;;
19149;SDS011;9707;49.158;8.632;2022-10-31T04:27:15;4.75;;;2.55;;
19149;SDS011;9707;49.158;8.632;2022-10-31T04:29:40;5.75;;;2.60;;
19149;SDS011;9707;49.158;8.632;2022-10-31T04:32:06;5.88;;;2.83;;
19149;SDS011;9707;49.158;8.632;2022-10-31T04:34:31;5.68;;;2.50;;
19149;SDS011;9707;49.158;8.632;2022-10-31T04:36:56;3.33;;;2.50;;
19149;SDS011;9707;49.158;8.632;2022-10-31T04:39:21;3.60;;;2.55;;
19149;SDS011;9707;49.158;8.632;2022-10-31T04:41:47;5.72;;;2.75;;
19149;SDS011;9707;49.158;8.632;2022-10-31T04:44:12;4.10;;;2.58;;
19149;SDS011;9707;49.158;8.632;2022-10-31T04:46:37;4.13;;;2.80;;
19149;SDS011;9707;49.158;8.632;2022-10-31T04:49:02;4.53;;;2.28;;
19149;SDS011;9707;49.158;8.632;2022-10-31T04:51:28;2.78;;;2.13;;
19149;SDS011;9707;49.158;8.632;2022-10-31T04:53:53;3.65;;;2.38;;
19149;SDS011;9707;49.158;8.632;2022-10-31T04:56:18;3.47;;;2.00;;
19149;SDS011;9707;49.158;8.632;2022-10-31T04:58:43;3.67;;;1.92;;
19149;SDS011;9707;49.158;8.632;2022-10-31T05:01:09;3.40;;;1.88;;
19149;SDS011;9707;49.158;8.632;2022-10-31T05:03:34;3.25;;;2.25;;
19149;SDS011;9707;49.158;8.632;2022-10-31T05:05:59;3.13;;;2.47;;
19149;SDS011;9707;49.158;8.632;2022-10-31T05:08:25;2.38;;;1.95;;
19149;SDS011;9707;49.158;8.632;2022-10-31T05:10:50;3.85;;;2.20;;
19149;SDS011;9707;49.158;8.632;2022-10-31T05:13:16;4.05;;;2.00;;
19149;SDS011;9707;49.158;8.632;2022-10-31T05:15:42;2.67;;;2.33;;
19149;SDS011;9707;49.158;8.632;2022-10-31T05:18:07;3.47;;;2.47;;
19149;SDS011;9707;49.158;8.632;2022-10-31T05:20:33;4.22;;;2.38;;
19149;SDS011;9707;49.158;8.632;2022-10-31T05:22:58;3.92;;;2.53;;
19149;SDS011;9707;49.158;8.632;2022-10-31T05:25:25;3.78;;;2.60;;
19149;SDS011;9707;49.158;8.632;2022-10-31T05:27:52;2.85;;;2.22;;
19149;SDS011;9707;49.158;8.632;2022-10-31T05:30:22;4.25;;;2.53;;
19149;SDS011;9707;49.158;8.632;2022-10-31T05:32:50;4.93;;;2.35;;
19149;SDS011;9707;49.158;8.632;2022-10-31T05:35:18;2.53;;;2.25;;
19149;SDS011;9707;49.158;8.632;2022-10-31T05:37:48;2.65;;;2.13;;
19149;SDS011;9707;49.158;8.632;2022-10-31T05:40:14;4.03;;;2.33;;
19149;SDS011;9707;49.158;8.632;2022-10-31T05:42:41;4.22;;;2.67;;
19149;SDS011;9707;49.158;8.632;2022-10-31T05:45:08;3.10;;;2.40;;
19149;SDS011;9707;49.158;8.632;2022-10-31T05:47:34;6.03;;;2.42;;
19149;SDS011;9707;49.158;8.632;2022-10-31T05:50:00;3.75;;;2.15;;
19149;SDS011;9707;49.158;8.632;2022-10-31T05:52:25;3.08;;;2.28;;
19149;SDS011;9707;49.158;8.632;2022-10-31T05:54:50;3.45;;;2.50;;
19149;SDS011;9707;49.158;8.632;2022-10-31T05:57:15;3.45;;;2.45;;
19149;SDS011;9707;49.158;8.632;2022-10-31T05:59:41;3.38;;;2.50;;
19149;SDS011;9707;49.158;8.632;2022-10-31T06:02:06;4.75;;;3.28;;
19149;SDS011;9707;49.158;8.632;2022-10-31T06:04:31;3.40;;;3.05;;
19149;SDS011;9707;49.158;8.632;2022-10-31T06:06:57;5.72;;;5.10;;
19149;SDS011;9707;49.158;8.632;2022-10-31T06:09:22;5.07;;;3.63;;
19149;SDS011;9707;49.158;8.632;2022-10-31T06:11:48;7.65;;;3.63;;
19149;SDS011;9707;49.158;8.632;2022-10-31T06:14:13;3.35;;;2.97;;
19149;SDS011;9707;49.158;8.632;2022-10-31T06:16:38;3.35;;;2.40;;
19149;SDS011;9707;49.158;8.632;2022-10-31T06:19:03;3.83;;;2.45;;
19149;SDS011;9707;49.158;8.632;2022-10-31T06:21:29;6.00;;;4.47;;
19149;SDS011;9707;49.158;8.632;2022-10-31T06:23:54;3.75;;;3.40;;
19149;SDS011;9707;49.158;8.632;2022-10-31T06:26:19;4.70;;;3.40;;
19149;SDS011;9707;49.158;8.632;2022-10-31T06:28:45;4.82;;;3.08;;
19149;SDS011;9707;49.158;8.632;2022-10-31T06:31:10;3.35;;;2.75;;
19149;SDS011;9707;49.158;8.632;2022-10-31T06:33:35;3.83;;;3.28;;
19149;SDS011;9707;49.158;8.632;2022-10-31T06:36:01;4.20;;;2.92;;
19149;SDS011;9707;49.158;8.632;2022-10-31T06:38:27;5.55;;;3.28;;
19149;SDS011;9707;49.158;8.632;2022-10-31T06:40:53;3.78;;;2.70;;
19149;SDS011;9707;49.158;8.632;2022-10-31T06:43:19;3.72;;;2.83;;
19149;SDS011;9707;49.158;8.632;2022-10-31T06:45:45;3.70;;;2.58;;
19149;SDS011;9707;49.158;8.632;2022-10-31T06:48:11;3.83;;;2.65;;
19149;SDS011;9707;49.158;8.632;2022-10-31T06:50:36;5.50;;;3.25;;
19149;SDS011;9707;49.158;8.632;2022-10-31T06:53:01;4.60;;;3.53;;
19149;SDS011;9707;49.158;8.632;2022-10-31T06:55:27;5.70;;;3.55;;
19149;SDS011;9707;49.158;8.632;2022-10-31T06:57:53;4.68;;;3.10;;
19149;SDS011;9707;49.158;8.632;2022-10-31T07:00:23;23.55;;;21.20;;
19149;SDS011;9707;49.158;8.632;2022-10-31T07:03:06;4.28;;;3.88;;
19149;SDS011;9707;49.158;8.632;2022-10-31T07:05:34;5.55;;;2.22;;
19149;SDS011;9707;49.158;8.632;2022-10-31T07:08:01;4.35;;;3.17;;
19149;SDS011;9707;49.158;8.632;2022-10-31T07:10:29;3.78;;;3.38;;
19149;SDS011;9707;49.158;8.632;2022-10-31T07:12:57;6.05;;;3.40;;
19149;SDS011;9707;49.158;8.632;2022-10-31T07:15:25;4.57;;;3.15;;
19149;SDS011;9707;49.158;8.632;2022-10-31T07:17:52;3.47;;;2.45;;
19149;SDS011;9707;49.158;8.632;2022-10-31T07:20:17;3.17;;;2.78;;
19149;SDS011;9707;49.158;8.632;2022-10-31T07:22:43;3.50;;;2.60;;
19149;SDS011;9707;49.158;8.632;2022-10-31T07:25:08;3.00;;;2.70;;
19149;SDS011;9707;49.158;8.632;2022-10-31T07:27:37;3.13;;;2.80;;
19149;SDS011;9707;49.158;8.632;2022-10-31T07:30:04;4.82;;;2.13;;
19149;SDS011;9707;49.158;8.632;2022-10-31T07:32:46;4.28;;;2.88;;
19149;SDS011;9707;49.158;8.632;2022-10-31T07:35:14;3.13;;;2.45;;
19149;SDS011;9707;49.158;8.632;2022-10-31T07:37:41;4.13;;;3.17;;
19149;SDS011;9707;49.158;8.632;2022-10-31T07:40:07;3.55;;;2.20;;
19149;SDS011;9707;49.158;8.632;2022-10-31T07:45:06;4.85;;;3.03;;
19149;SDS011;9707;49.158;8.632;2022-10-31T07:47:49;3.70;;;2.38;;
19149;SDS011;9707;49.158;8.632;2022-10-31T07:50:20;5.53;;;2.90;;
19149;SDS011;9707;49.158;8.632;2022-10-31T07:53:00;5.63;;;2.55;;
19149;SDS011;9707;49.158;8.632;2022-10-31T07:55:27;5.68;;;3.05;;
19149;SDS011;9707;49.158;8.632;2022-10-31T07:58:00;5.05;;;2.85;;
19149;SDS011;9707;49.158;8.632;2022-10-31T08:00:27;7.07;;;3.28;;
19149;SDS011;9707;49.158;8.632;2022-10-31T08:02:59;4.25;;;3.17;;
19149;SDS011;9707;49.158;8.632;2022-10-31T08:05:29;5.50;;;3.35;;
19149;SDS011;9707;49.158;8.632;2022-10-31T08:07:55;6.43;;;2.85;;
19149;SDS011;9707;49.158;8.632;2022-10-31T08:10:21;5.53;;;2.80;;
19149;SDS011;9707;49.158;8.632;2022-10-31T08:12:47;4.07;;;2.92;;
19149;SDS011;9707;49.158;8.632;2022-10-31T08:15:19;5.15;;;2.63;;
19149;SDS011;9707;49.158;8.632;2022-10-31T08:17:44;3.30;;;2.95;;
19149;SDS011;9707;49.158;8.632;2022-10-31T08:20:12;5.43;;;2.97;;
19149;SDS011;9707;49.158;8.632;2022-10-31T08:22:37;4.28;;;3.88;;
19149;SDS011;9707;49.158;8.632;2022-10-31T08:25:02;4.57;;;2.72;;
19149;SDS011;9707;49.158;8.632;2022-10-31T08:27:28;4.25;;;3.20;;
19149;SDS011;9707;49.158;8.632;2022-10-31T08:29:53;5.88;;;2.97;;
19149;SDS011;9707;49.158;8.632;2022-10-31T08:32:18;6.13;;;3.00;;
19149;SDS011;9707;49.158;8.632;2022-10-31T08:34:43;3.58;;;2.85;;
19149;SDS011;9707;49.158;8.632;2022-10-31T08:37:09;8.98;;;7.05;;
19149;SDS011;9707;49.158;8.632;2022-10-31T08:39:34;4.55;;;3.03;;
19149;SDS011;9707;49.158;8.632;2022-10-31T08:41:59;5.50;;;3.70;;
19149;SDS011;9707;49.158;8.632;2022-10-31T08:44:24;3.83;;;3.20;;
19149;SDS011;9707;49.158;8.632;2022-10-31T08:46:50;3.95;;;2.67;;
19149;SDS011;9707;49.158;8.632;2022-10-31T08:49:15;3.65;;;3.00;;
19149;SDS011;9707;49.158;8.632;2022-10-31T08:51:40;5.15;;;3.40;;
19149;SDS011;9707;49.158;8.632;2022-10-31T08:54:06;6.13;;;3.10;;
19149;SDS011;9707;49.158;8.632;2022-10-31T08:56:31;6.80;;;3.70;;
19149;SDS011;9707;49.158;8.632;2022-10-31T08:58:56;4.93;;;3.50;;
19149;SDS011;9707;49.158;8.632;2022-10-31T09:01:22;4.85;;;3.28;;
19149;SDS011;9707;49.158;8.632;2022-10-31T09:03:47;5.18;;;3.90;;
19149;SDS011;9707;49.158;8.632;2022-10-31T09:06:12;4.80;;;3.97;;
19149;SDS011;9707;49.158;8.632;2022-10-31T09:08:37;12.73;;;8.68;;
19149;SDS011;9707;49.158;8.632;2022-10-31T09:11:03;3.92;;;3.47;;
19149;SDS011;9707;49.158;8.632;2022-10-31T09:13:29;4.15;;;3.65;;
19149;SDS011;9707;49.158;8.632;2022-10-31T09:15:55;3.85;;;3.42;;
19149;SDS011;9707;49.158;8.632;2022-10-31T09:18:21;5.57;;;3.85;;
19149;SDS011;9707;49.158;8.632;2022-10-31T09:20:48;7.47;;;3.47;;
19149;SDS011;9707;49.158;8.632;2022-10-31T09:23:18;8.88;;;4.78;;
19149;SDS011;9707;49.158;8.632;2022-10-31T09:25:45;6.05;;;3.90;;
19149;SDS011;9707;49.158;8.632;2022-10-31T09:28:13;3.92;;;3.53;;
19149;SDS011;9707;49.158;8.632;2022-10-31T09:30:39;5.40;;;3.67;;
19149;SDS011;9707;49.158;8.632;2022-10-31T09:33:06;6.90;;;4.43;;
19149;SDS011;9707;49.158;8.632;2022-10-31T09:35:35;7.88;;;3.88;;
19149;SDS011;9707;49.158;8.632;2022-10-31T09:38:02;5.78;;;4.28;;
19149;SDS011;9707;49.158;8.632;2022-10-31T09:40:34;7.55;;;4.22;;
19149;SDS011;9707;49.158;8.632;2022-10-31T09:51:43;4.85;;;3.85;;
19149;SDS011;9707;49.158;8.632;2022-10-31T09:54:26;5.82;;;3.65;;
19149;SDS011;9707;49.158;8.632;2022-10-31T09:56:58;6.72;;;3.97;;
19149;SDS011;9707;49.158;8.632;2022-10-31T09:59:29;5.05;;;2.90;;
19149;SDS011;9707;49.158;8.632;2022-10-31T10:02:05;4.63;;;3.42;;
19149;SDS011;9707;49.158;8.632;2022-10-31T10:07:59;7.50;;;4.10;;
19149;SDS011;9707;49.158;8.632;2022-10-31T10:19:23;5.47;;;3.60;;
19149;SDS011;9707;49.158;8.632;2022-10-31T10:22:12;6.70;;;4.05;;
19149;SDS011;9707;49.158;8.632;2022-10-31T10:27:54;9.15;;;4.20;;
19149;SDS011;9707;49.158;8.632;2022-10-31T10:30:37;5.65;;;3.72;;
19149;SDS011;9707;49.158;8.632;2022-10-31T10:33:09;6.05;;;4.10;;
19149;SDS011;9707;49.158;8.632;2022-10-31T10:35:39;6.40;;;3.83;;
19149;SDS011;9707;49.158;8.632;2022-10-31T10:40:48;5.78;;;4.05;;
19149;SDS011;9707;49.158;8.632;2022-10-31T10:43:19;4.95;;;3.88;;
19149;SDS011;9707;49.158;8.632;2022-10-31T10:49:19;8.45;;;4.05;;
19149;SDS011;9707;49.158;8.632;2022-10-31T10:51:59;6.43;;;4.13;;
19149;SDS011;9707;49.158;8.632;2022-10-31T10:54:53;12.82;;;4.05;;
19149;SDS011;9707;49.158;8.632;2022-10-31T10:59:52;8.85;;;4.10;;
19149;SDS011;9707;49.158;8.632;2022-10-31T11:02:18;5.28;;;3.75;;
19149;SDS011;9707;49.158;8.632;2022-10-31T11:04:51;11.35;;;4.30;;
19149;SDS011;9707;49.158;8.632;2022-10-31T11:07:18;6.28;;;3.80;;
19149;SDS011;9707;49.158;8.632;2022-10-31T11:09:43;8.85;;;4.50;;
19149;SDS011;9707;49.158;8.632;2022-10-31T11:17:31;5.95;;;3.95;;
19149;SDS011;9707;49.158;8.632;2022-10-31T11:20:03;10.07;;;3.88;;
19149;SDS011;9707;49.158;8.632;2022-10-31T11:22:28;7.85;;;3.85;;
19149;SDS011;9707;49.158;8.632;2022-10-31T11:24:54;8.25;;;4.32;;
19149;SDS011;9707;49.158;8.632;2022-10-31T11:27:20;9.57;;;4.15;;
19149;SDS011;9707;49.158;8.632;2022-10-31T11:29:47;5.70;;;4.35;;
19149;SDS011;9707;49.158;8.632;2022-10-31T11:32:17;7.40;;;4.25;;
19149;SDS011;9707;49.158;8.632;2022-10-31T11:34:50;7.60;;;4.00;;
19149;SDS011;9707;49.158;8.632;2022-10-31T11:37:28;7.57;;;4.32;;
19149;SDS011;9707;49.158;8.632;2022-10-31T11:39:58;8.18;;;3.97;;
19149;SDS011;9707;49.158;8.632;2022-10-31T11:42:26;7.72;;;4.07;;
19149;SDS011;9707;49.158;8.632;2022-10-31T11:44:54;10.90;;;5.45;;
19149;SDS011;9707;49.158;8.632;2022-10-31T11:47:23;8.23;;;4.47;;
19149;SDS011;9707;49.158;8.632;2022-10-31T11:49:54;7.35;;;4.40;;
19149;SDS011;9707;49.158;8.632;2022-10-31T11:54:54;7.60;;;4.35;;
19149;SDS011;9707;49.158;8.632;2022-10-31T11:58:04;7.22;;;4.45;;
19149;SDS011;9707;49.158;8.632;2022-10-31T12:00:19;7.32;;;4.32;;
19149;SDS011;9707;49.158;8.632;2022-10-31T12:02:46;7.28;;;4.55;;
19149;SDS011;9707;49.158;8.632;2022-10-31T12:05:18;8.23;;;4.55;;
19149;SDS011;9707;49.158;8.632;2022-10-31T12:07:48;8.70;;;4.68;;
19149;SDS011;9707;49.158;8.632;2022-10-31T12:10:14;10.20;;;4.65;;
19149;SDS011;9707;49.158;8.632;2022-10-31T12:27:02;7.75;;;4.30;;
19149;SDS011;9707;49.158;8.632;2022-10-31T12:32:23;11.63;;;5.10;;
19149;SDS011;9707;49.158;8.632;2022-10-31T12:35:13;10.40;;;5.80;;
19149;SDS011;9707;49.158;8.632;2022-10-31T12:38:01;7.47;;;4.57;;
19149;SDS011;9707;49.158;8.632;2022-10-31T12:58:07;9.45;;;4.85;;
19149;SDS011;9707;49.158;8.632;2022-10-31T13:00:41;10.38;;;5.10;;
19149;SDS011;9707;49.158;8.632;2022-10-31T13:05:48;8.10;;;4.72;;
19149;SDS011;9707;49.158;8.632;2022-10-31T13:11:13;8.57;;;4.45;;
19149;SDS011;9707;49.158;8.632;2022-10-31T13:13:53;10.32;;;4.35;;
19149;SDS011;9707;49.158;8.632;2022-10-31T13:16:34;11.40;;;5.38;;
19149;SDS011;9707;49.158;8.632;2022-10-31T13:29:58;10.32;;;4.68;;
19149;SDS011;9707;49.158;8.632;2022-10-31T13:32:28;10.48;;;4.63;;
19149;SDS011;9707;49.158;8.632;2022-10-31T13:35:13;8.63;;;5.20;;
19149;SDS011;9707;49.158;8.632;2022-10-31T13:37:46;11.43;;;5.32;;
19149;SDS011;9707;49.158;8.632;2022-10-31T13:40:32;12.52;;;5.00;;
19149;SDS011;9707;49.158;8.632;2022-10-31T13:43:30;7.78;;;5.18;;
19149;SDS011;9707;49.158;8.632;2022-10-31T13:45:56;11.45;;;4.80;;
19149;SDS011;9707;49.158;8.632;2022-10-31T13:51:05;14.93;;;5.32;;
19149;SDS011;9707;49.158;8.632;2022-10-31T13:53:37;8.32;;;4.97;;
19149;SDS011;9707;49.158;8.632;2022-10-31T13:56:04;9.68;;;4.75;;
19149;SDS011;9707;49.158;8.632;2022-10-31T13:58:56;9.32;;;5.53;;
19149;SDS011;9707;49.158;8.632;2022-10-31T14:01:34;7.10;;;4.90;;
19149;SDS011;9707;49.158;8.632;2022-10-31T14:04:07;11.80;;;5.13;;
19149;SDS011;9707;49.158;8.632;2022-10-31T14:06:42;8.85;;;5.38;;
19149;SDS011;9707;49.158;8.632;2022-10-31T14:09:17;9.65;;;5.43;;
19149;SDS011;9707;49.158;8.632;2022-10-31T14:11:55;9.43;;;5.30;;
19149;SDS011;9707;49.158;8.632;2022-10-31T14:14:26;9.35;;;4.75;;
19149;SDS011;9707;49.158;8.632;2022-10-31T14:17:01;8.38;;;4.85;;
19149;SDS011;9707;49.158;8.632;2022-10-31T14:19:27;9.18;;;5.45;;
19149;SDS011;9707;49.158;8.632;2022-10-31T14:21:52;12.00;;;5.57;;
19149;SDS011;9707;49.158;8.632;2022-10-31T14:26:53;9.20;;;5.47;;
19149;SDS011;9707;49.158;8.632;2022-10-31T14:29:27;8.25;;;5.18;;
19149;SDS011;9707;49.158;8.632;2022-10-31T14:34:36;11.75;;;5.30;;
19149;SDS011;9707;49.158;8.632;2022-10-31T14:45:23;13.85;;;5.50;;
19149;SDS011;9707;49.158;8.632;2022-10-31T14:48:01;10.93;;;5.03;;
19149;SDS011;9707;49.158;8.632;2022-10-31T14:50:48;8.30;;;4.63;;
19149;SDS011;9707;49.158;8.632;2022-10-31T14:55:56;11.63;;;5.32;;
19149;SDS011;9707;49.158;8.632;2022-10-31T14:58:24;7.47;;;4.15;;
19149;SDS011;9707;49.158;8.632;2022-10-31T15:01:00;8.98;;;5.30;;
19149;SDS011;9707;49.158;8.632;2022-10-31T15:03:28;9.20;;;4.45;;
19149;SDS011;9707;49.158;8.632;2022-10-31T15:06:02;8.93;;;5.25;;
19149;SDS011;9707;49.158;8.632;2022-10-31T15:08:38;7.78;;;4.80;;
19149;SDS011;9707;49.158;8.632;2022-10-31T15:11:14;11.50;;;4.82;;
19149;SDS011;9707;49.158;8.632;2022-10-31T15:16:13;13.93;;;5.40;;
19149;SDS011;9707;49.158;8.632;2022-10-31T15:18:45;8.25;;;5.45;;
19149;SDS011;9707;49.158;8.632;2022-10-31T15:21:14;7.03;;;4.68;;
19149;SDS011;9707;49.158;8.632;2022-10-31T15:23:41;12.30;;;4.80;;
19149;SDS011;9707;49.158;8.632;2022-10-31T15:26:11;7.35;;;3.85;;
19149;SDS011;9707;49.158;8.632;2022-10-31T15:28:42;7.68;;;4.47;;
19149;SDS011;9707;49.158;8.632;2022-10-31T15:31:13;8.98;;;4.70;;
19149;SDS011;9707;49.158;8.632;2022-10-31T15:33:41;8.40;;;3.97;;
19149;SDS011;9707;49.158;8.632;2022-10-31T15:36:17;6.82;;;4.43;;
19149;SDS011;9707;49.158;8.632;2022-10-31T15:38:47;10.57;;;5.43;;
19149;SDS011;9707;49.158;8.632;2022-10-31T15:46:56;8.55;;;4.75;;
19149;SDS011;9707;49.158;8.632;2022-10-31T15:54:58;8.90;;;5.10;;
19149;SDS011;9707;49.158;8.632;2022-10-31T15:57:26;8.77;;;4.63;;
19149;SDS011;9707;49.158;8.632;2022-10-31T15:59:52;9.07;;;5.78;;
19149;SDS011;9707;49.158;8.632;2022-10-31T16:02:23;7.18;;;4.68;;
19149;SDS011;9707;49.158;8.632;2022-10-31T16:07:21;8.77;;;4.50;;
19149;SDS011;9707;49.158;8.632;2022-10-31T16:12:21;7.07;;;3.72;;
19149;SDS011;9707;49.158;8.632;2022-10-31T16:14:48;7.57;;;4.13;;
19149;SDS011;9707;49.158;8.632;2022-10-31T16:17:15;7.18;;;3.90;;
19149;SDS011;9707;49.158;8.632;2022-10-31T16:22:28;10.85;;;5.93;;
19149;SDS011;9707;49.158;8.632;2022-10-31T16:27:36;7.25;;;4.53;;
19149;SDS011;9707;49.158;8.632;2022-10-31T16:30:03;8.30;;;5.70;;
19149;SDS011;9707;49.158;8.632;2022-10-31T16:32:58;8.63;;;4.78;;
19149;SDS011;9707;49.158;8.632;2022-10-31T16:37:51;9.68;;;5.50;;
19149;SDS011;9707;49.158;8.632;2022-10-31T16:40:17;8.07;;;4.72;;
19149;SDS011;9707;49.158;8.632;2022-10-31T16:42:43;12.43;;;5.13;;
19149;SDS011;9707;49.158;8.632;2022-10-31T16:45:19;11.63;;;5.60;;
19149;SDS011;9707;49.158;8.632;2022-10-31T16:47:48;10.02;;;4.82;;
19149;SDS011;9707;49.158;8.632;2022-10-31T16:50:15;10.45;;;6.10;;
19149;SDS011;9707;49.158;8.632;2022-10-31T16:52:46;8.00;;;5.13;;
19149;SDS011;9707;49.158;8.632;2022-10-31T16:55:12;9.90;;;6.20;;
19149;SDS011;9707;49.158;8.632;2022-10-31T16:57:40;13.18;;;6.45;;
19149;SDS011;9707;49.158;8.632;2022-10-31T17:00:12;14.52;;;5.38;;
19149;SDS011;9707;49.158;8.632;2022-10-31T17:02:38;10.70;;;6.93;;
19149;SDS011;9707;49.158;8.632;2022-10-31T17:05:03;10.75;;;7.43;;
19149;SDS011;9707;49.158;8.632;2022-10-31T17:07:29;14.95;;;8.07;;
19149;SDS011;9707;49.158;8.632;2022-10-31T17:09:54;20.10;;;10.40;;
19149;SDS011;9707;49.158;8.632;2022-10-31T17:12:20;12.20;;;7.05;;
19149;SDS011;9707;49.158;8.632;2022-10-31T17:14:50;11.65;;;7.40;;
19149;SDS011;9707;49.158;8.632;2022-10-31T17:17:16;13.05;;;7.38;;
19149;SDS011;9707;49.158;8.632;2022-10-31T17:19:41;16.15;;;9.20;;
19149;SDS011;9707;49.158;8.632;2022-10-31T17:22:08;9.30;;;6.10;;
19149;SDS011;9707;49.158;8.632;2022-10-31T17:24:36;11.50;;;6.13;;
19149;SDS011;9707;49.158;8.632;2022-10-31T17:27:01;11.60;;;6.88;;
19149;SDS011;9707;49.158;8.632;2022-10-31T17:29:29;20.60;;;9.07;;
19149;SDS011;9707;49.158;8.632;2022-10-31T17:31:54;11.43;;;6.03;;
19149;SDS011;9707;49.158;8.632;2022-10-31T17:34:20;15.25;;;8.82;;
19149;SDS011;9707;49.158;8.632;2022-10-31T17:36:49;13.65;;;8.15;;
19149;SDS011;9707;49.158;8.632;2022-10-31T17:39:15;11.73;;;6.85;;
19149;SDS011;9707;49.158;8.632;2022-10-31T17:41:41;12.82;;;6.50;;
19149;SDS011;9707;49.158;8.632;2022-10-31T17:44:08;11.02;;;5.20;;
19149;SDS011;9707;49.158;8.632;2022-10-31T17:46:34;8.70;;;5.22;;
19149;SDS011;9707;49.158;8.632;2022-10-31T17:49:00;14.60;;;6.78;;
19149;SDS011;9707;49.158;8.632;2022-10-31T17:51:25;8.65;;;5.78;;
19149;SDS011;9707;49.158;8.632;2022-10-31T17:53:51;12.98;;;6.70;;
19149;SDS011;9707;49.158;8.632;2022-10-31T17:56:16;10.50;;;6.00;;
19149;SDS011;9707;49.158;8.632;2022-10-31T17:58:41;10.05;;;5.53;;
19149;SDS011;9707;49.158;8.632;2022-10-31T18:01:11;8.43;;;5.25;;
19149;SDS011;9707;49.158;8.632;2022-10-31T18:03:38;11.02;;;6.70;;
19149;SDS011;9707;49.158;8.632;2022-10-31T18:06:04;14.00;;;6.95;;
19149;SDS011;9707;49.158;8.632;2022-10-31T18:08:31;11.85;;;7.00;;
19149;SDS011;9707;49.158;8.632;2022-10-31T18:10:59;10.93;;;6.68;;
19149;SDS011;9707;49.158;8.632;2022-10-31T18:13:28;13.63;;;6.30;;
19149;SDS011;9707;49.158;8.632;2022-10-31T18:15:54;10.48;;;6.50;;